Time;durP1;ratioP1;P1;durP2;ratioP2;P2;SDS_P1;SDS_P2;PMS_P1;PMS_P2;Temp;Humidity;BMP_temperature;BMP_pressure;BME280_temperature;BME280_humidity;BME280_pressure;Samples;Min_cycle;Max_cycle;Signal;HPM_P1;HPM_P2
2022/05/21 00:04:03;;;;;;;;;;;;;;;17.95;100.00;95905.44;10502753;28;1921;-72
2022/05/21 00:09:07;;;;;;;;;;;;;;;17.73;100.00;95930.81;10501492;28;1936;-72
2022/05/21 00:14:10;;;;;;;;;;;;;;;17.67;100.00;95932.03;10486842;28;1908;-72
2022/05/21 00:19:15;;;;;;;;;;;;;;;17.59;100.00;95930.88;10487639;28;1862;-72
2022/05/21 00:24:18;;;;;;;;;;;;;;;17.63;100.00;95925.63;10488093;28;1929;-72
2022/05/21 00:29:23;;;;;;;;;;;;;;;17.58;100.00;95929.28;10504949;28;1877;-72
2022/05/21 00:34:26;;;;;;;;;;;;;;;17.66;100.00;95935.88;10487009;28;1988;-74
2022/05/21 00:39:30;;;;;;;;;;;;;;;17.67;100.00;95951.84;10510491;28;1948;-73
2022/05/21 00:44:34;;;;;;;;;;;;;;;17.58;100.00;95959.19;10518093;28;2098;-72
2022/05/21 00:49:39;;;;;;;;;;;;;;;17.63;100.00;95961.78;10503760;28;1924;-73
2022/05/21 00:54:42;;;;;;;;;;;;;;;17.68;100.00;95963.53;10507960;28;2017;-71
2022/05/21 00:59:50;;;;;;;;;;;;;;;17.64;100.00;95955.22;10508893;28;1861;-72
2022/05/21 01:04:56;;;;;;;;;;;;;;;17.70;100.00;95937.66;10489759;28;1970;-72
2022/05/21 01:10:00;;;;;;;;;;;;;;;17.70;100.00;95945.81;10489732;28;1961;-72
2022/05/21 01:15:05;;;;;;;;;;;;;;;17.66;100.00;95969.28;10506768;28;1975;-72
2022/05/21 01:20:09;;;;;;;;;;;;;;;17.58;100.00;95951.03;10493890;28;2066;-71
2022/05/21 01:25:17;;;;;;;;;;;;;;;17.57;100.00;95965.75;10516296;28;2104;-71
2022/05/21 01:30:21;;;;;;;;;;;;;;;17.13;100.00;95978.28;10506362;28;1940;-72
2022/05/21 01:35:25;;;;;;;;;;;;;;;16.86;100.00;96016.41;10514730;28;1848;-73
2022/05/21 01:40:30;;;;;;;;;;;17.50;99.90;;;16.64;100.00;96007.13;10510696;28;1892;-73
2022/05/21 01:45:35;;;;;;;;;;;17.40;99.90;;;16.43;100.00;96012.22;10509414;28;1921;-72
2022/05/21 01:50:38;;;;;;;;;;;17.30;99.90;;;16.36;100.00;95998.25;10489585;28;1980;-72
2022/05/21 01:55:41;;;;;;;;;;;17.20;99.90;;;16.48;100.00;95995.03;10517139;28;2251;-71
2022/05/21 02:00:44;;;;;;;;;;;17.20;99.90;;;16.44;100.00;95983.16;10516388;28;2188;-71
2022/05/21 02:05:47;;;;;;;;;;;17.10;99.90;;;16.46;100.00;96002.66;10490429;28;1747;-71
2022/05/21 02:10:51;;;;;;;;;;;14.70;99.90;;;16.48;100.00;96012.09;10496859;28;2034;-71
2022/05/21 02:15:54;;;;;;;;;;;17.30;99.90;;;16.48;100.00;96003.97;10514872;28;1939;-71
2022/05/21 02:20:57;;;;;;;;;;;17.10;99.90;;;16.56;100.00;96007.06;10495609;28;2288;-71
2022/05/21 02:26:01;;;;;;;;;;;17.30;99.90;;;16.51;100.00;96009.88;10509495;28;1923;-72
2022/05/21 02:31:04;;;;;;;;;;;17.20;99.90;;;16.61;100.00;96013.19;10516601;28;2094;-72
2022/05/21 02:36:07;;;;;;;;;;;17.30;99.90;;;16.56;100.00;96023.34;10493362;28;2055;-72
2022/05/21 02:41:09;;;;;;;;;;;17.20;99.90;;;16.58;100.00;96021.91;10493602;28;1677;-72
2022/05/21 02:46:13;;;;;;;;;;;17.40;99.90;;;16.61;100.00;96018.59;10513425;28;1688;-71
2022/05/21 02:51:16;;;;;;;;;;;17.30;99.90;;;16.66;100.00;96023.88;10502950;28;1904;-71
2022/05/21 02:56:20;;;;;;;;;;;17.40;99.90;;;16.67;100.00;96017.38;10514530;28;1998;-71
2022/05/21 03:01:23;;;;;;;;;;;17.40;99.90;;;16.72;100.00;96013.75;10513649;28;1935;-71
2022/05/21 03:06:26;;;;;;;;;;;17.40;99.90;;;16.77;100.00;96012.84;10489299;28;1939;-72
2022/05/21 03:11:29;;;;;;;;;;;17.50;99.90;;;16.77;100.00;96023.69;10517237;28;1972;-72
2022/05/21 03:16:32;;;;;;;;;;;17.40;99.90;;;16.78;100.00;96020.66;10498798;28;1693;-72
2022/05/21 03:21:35;;;;;;;;;;;17.50;99.90;;;16.81;100.00;96024.69;10491379;28;1931;-71
2022/05/21 03:26:38;;;;;;;;;;;17.50;99.90;;;16.79;100.00;96026.91;10516681;28;1784;-71
2022/05/21 03:31:42;;;;;;;;;;;17.50;99.90;;;16.61;100.00;96029.47;10513501;28;2026;-72
2022/05/21 03:36:45;;;;;;;;;;;17.40;99.90;;;16.59;100.00;96033.56;10512451;28;1924;-72
2022/05/21 03:41:49;;;;;;;;;;;17.40;99.90;;;16.53;100.00;96038.31;10510688;28;1896;-72
2022/05/21 03:46:52;;;;;;;;;;;17.30;99.90;;;16.54;100.00;96039.09;10511971;28;1837;-72
2022/05/21 03:51:55;;;;;;;;;;;17.30;99.90;;;16.52;100.00;96049.47;10499231;28;1934;-72
2022/05/21 03:56:58;;;;;;;;;;;17.30;99.90;;;16.46;100.00;96059.63;10497905;28;2021;-72
2022/05/21 04:02:02;;;;;;;;;;;17.10;99.90;;;16.32;100.00;96077.84;10509052;28;2034;-71
2022/05/21 04:07:06;;;;;;;;;;;17.10;99.90;;;16.46;100.00;96078.63;10508998;28;1861;-71
2022/05/21 04:12:09;;;;;;;;;;;17.10;99.90;;;16.48;100.00;96084.56;10489612;28;2048;-72
2022/05/21 04:17:15;;;;;;;;;;;17.10;99.90;;;16.46;100.00;96087.56;10513284;28;1951;-71
2022/05/21 04:22:23;;;;;;;;;;;17.20;99.90;;;16.55;100.00;96098.53;10492128;28;2018;-72
2022/05/21 04:27:27;;;;;;;;;;;17.20;99.90;;;16.75;100.00;96084.53;10505303;28;1974;-71
2022/05/21 04:32:30;;;;;;;;;;;17.20;99.90;;;16.86;100.00;96100.59;10489949;28;1987;-72
2022/05/21 04:37:33;;;;;;;;;;;17.30;99.90;;;16.82;99.68;96097.69;10509991;28;1943;-71
2022/05/21 04:42:37;;;;;;;;;;;17.40;99.90;;;17.10;99.33;96098.41;10490579;28;1858;-72
2022/05/21 04:47:45;;;;;;;;;;;17.60;99.90;;;17.16;98.27;96105.34;10508334;28;1857;-72
2022/05/21 04:52:49;;;;;;;;;;;17.80;99.90;;;17.31;97.80;96108.81;10498440;28;2005;-72
2022/05/21 04:57:52;;;;;;;;;;;17.80;99.90;;;17.40;96.34;96117.81;10509859;28;1827;-71
2022/05/21 05:02:55;;;;;;;;;;;18.00;99.90;;;17.74;95.61;96117.28;10500213;28;1924;-72
2022/05/21 05:07:58;;;;;;;;;;;18.10;99.90;;;17.66;92.96;96120.72;10477380;28;2189;-72
2022/05/21 05:13:02;;;;;;;;;;;18.20;99.90;;;17.45;92.14;96131.28;10498317;28;1995;-72
2022/05/21 05:18:06;;;;;;;;;;;18.20;99.90;;;17.32;93.97;96126.72;10488291;28;2008;-70
2022/05/21 05:23:09;;;;;;;;;;;18.00;99.90;;;17.18;90.71;96132.22;10496219;28;1982;-71
2022/05/21 05:28:13;;;;;;;;;;;17.90;99.90;;;17.46;90.07;96143.78;10505542;28;2390;-70
2022/05/21 05:33:15;;;;;;;;;;;18.00;99.90;;;17.88;85.38;96149.81;10487160;28;1917;-71
2022/05/21 05:38:18;;;;;;;;;;;18.20;99.90;;;18.08;82.57;96155.56;10501422;28;1809;-71
2022/05/21 05:43:21;;;;;;;;;;;18.60;99.90;;;18.06;81.26;96156.97;10507952;28;2054;-70
2022/05/21 05:48:25;;;;;;;;;;;18.50;99.90;;;18.38;79.51;96147.69;10523465;28;2014;-70
2022/05/21 05:53:30;;;;;;;;;;;18.80;99.90;;;18.42;76.49;96151.38;10509491;28;2004;-70
2022/05/21 06:03:55;;;;;;;;;;;19.00;99.90;;;18.53;74.64;96151.91;10521722;28;1867;-68
2022/05/21 06:08:59;;;;;;;;;;;19.00;99.90;;;18.59;70.08;96153.38;10522256;28;1958;-71
2022/05/21 06:14:02;;;;;;;;;;;19.00;99.90;;;18.97;69.84;96156.41;10493430;28;1910;-71
2022/05/21 06:19:06;;;;;;;;;;;19.10;99.90;;;18.94;68.40;96148.84;10497725;28;1958;-72
2022/05/21 06:24:09;;;;;;;;;;;19.40;99.90;;;19.87;64.60;96153.06;10504554;28;1879;-72
2022/05/21 06:29:12;;;;;;;;;;;19.70;99.90;;;19.60;60.26;96165.13;10496710;28;1963;-71
2022/05/21 06:34:17;;;;;;;;;;;20.10;99.90;;;19.15;61.83;96163.47;10500176;28;1894;-71
2022/05/21 06:39:19;;;;;;;;;;;19.80;99.90;;;19.30;60.41;96155.97;10482021;28;1943;-71
2022/05/21 06:44:23;;;;;;;;;;;19.60;99.90;;;19.72;60.19;96173.44;10506998;28;1884;-73
2022/05/21 06:49:26;;;;;;;;;;;19.80;99.90;;;19.82;54.81;96170.41;10488593;28;2090;-71
2022/05/21 06:54:30;;;;;;;;;;;20.10;99.90;;;19.48;54.35;96181.31;10486589;28;1914;-72
2022/05/21 06:59:33;;;;;;;;;;;20.00;99.90;;;19.48;56.47;96184.03;10507019;28;1888;-73
2022/05/21 07:09:57;;;;;;;;;;;20.00;99.90;;;19.80;57.61;96180.84;10506327;28;1982;-72
2022/05/21 07:15:00;;;;;;;;;;;20.20;99.90;;;19.52;57.86;96182.25;10494256;28;1918;-72
2022/05/21 07:20:03;;;;;;;;;;;20.00;99.90;;;20.07;55.95;96187.06;10515427;28;1899;-73
2022/05/21 07:25:06;;;;;;;;;;;20.30;99.90;;;20.09;55.28;96190.25;10489578;28;2167;-72
2022/05/21 07:30:10;;;;;;;;;;;20.50;99.90;;;19.62;56.26;96192.88;10497299;28;1830;-72
2022/05/21 07:35:13;;;;;;;;;;;20.60;99.90;;;19.76;57.84;96179.06;10504331;28;1981;-73
2022/05/21 07:40:21;;;;;;;;;;;20.10;99.90;;;20.34;53.47;96174.94;10506102;28;1957;-72
2022/05/21 07:45:24;;;;;;;;;;;20.60;99.90;;;20.54;53.82;96173.44;10479772;28;1862;-72
2022/05/21 07:50:28;;;;;;;;;;;20.80;99.90;;;20.75;53.32;96158.75;10494593;28;1804;-72
2022/05/21 07:55:31;;;;;;;;;;;21.10;99.90;;;21.58;51.02;96168.19;10497848;28;2000;-72
2022/05/21 08:00:34;;;;;;;;;;;21.70;99.90;;;21.30;50.70;96165.16;10508542;28;1811;-73
2022/05/21 08:05:36;;;;;;;;;;;21.90;99.90;;;20.88;50.26;96165.09;10489957;28;1803;-71
2022/05/21 08:10:40;;;;;;;;;;;21.60;99.90;;;20.38;51.95;96162.25;10486196;28;1885;-71
2022/05/21 08:15:43;;;;;;;;;;;21.20;99.90;;;20.96;51.93;96153.31;10499277;28;1914;-73
2022/05/21 08:20:46;;;;;;;;;;;21.30;99.90;;;20.57;51.22;96154.47;10484401;28;1990;-72
2022/05/21 08:31:11;;;;;;;;;;;21.40;99.90;;;21.07;50.84;96155.66;10489886;28;1786;-72
2022/05/21 08:36:14;;;;;;;;;;;21.40;99.90;;;21.49;45.13;96145.56;10500760;28;1909;-73
2022/05/21 08:41:21;;;;;;;;;;;21.80;99.90;;;22.13;45.32;96143.19;10506947;28;1858;-72
2022/05/21 08:46:24;;;;;;;;;;;22.30;99.90;;;22.39;45.34;96133.91;10502833;28;1893;-72
2022/05/21 08:51:28;;;;;;;;;;;22.60;99.90;;;22.48;43.83;96137.34;10509551;28;1721;-71
2022/05/21 08:56:32;;;;;;;;;;;22.90;99.90;;;22.60;42.84;96129.13;10489734;28;1984;-73
2022/05/21 09:01:35;;;;;;;;;;;23.00;99.90;;;22.20;43.78;96118.00;10491123;28;1755;-71
2022/05/21 09:06:39;;;;;;;;;;;22.90;99.90;;;22.03;43.94;96127.19;10482669;28;1816;-72
2022/05/21 09:11:42;;;;;;;;;;;22.60;99.90;;;22.71;43.58;96123.19;10504039;28;1774;-72
2022/05/21 09:17:00;;;;;;;;;;;22.90;99.90;;;22.31;43.16;96123.84;10505253;28;1997;-72
2022/05/21 09:22:02;;;;;;;;;;;22.90;99.90;;;22.56;43.85;96122.72;10510763;28;2362;-72
2022/05/21 09:27:06;;;;;;;;;;;23.00;99.90;;;22.68;42.37;96110.97;10490353;28;1780;-73
2022/05/21 09:32:09;;;;;;;;;;;23.00;99.90;;;22.21;43.44;96116.09;10487035;28;1899;-73
2022/05/21 09:37:12;;;;;;;;;;;22.80;99.90;;;22.31;43.35;96116.44;10506735;28;2047;-72
2022/05/21 09:45:22;;;;;;;;;;;22.90;99.90;;;21.17;46.48;96117.00;10487838;28;1765;-72
2022/05/21 09:47:40;;;;;;;;;;;22.20;99.90;;;21.18;46.35;96121.31;10519537;28;1831;-72
2022/05/21 09:52:45;;;;;;;;;;;22.00;99.90;;;21.70;42.61;96108.06;10523919;28;1910;-72
2022/05/21 09:57:48;;;;;;;;;;;22.20;99.90;;;22.27;44.13;96110.06;10500538;28;1873;-72
2022/05/21 10:02:51;;;;;;;;;;;22.60;99.90;;;22.89;37.19;96105.38;10535068;28;1785;-72
2022/05/21 10:13:15;;;;;;;;;;;23.00;99.90;;;22.54;41.51;96119.53;10487826;28;1984;-73
2022/05/21 10:18:19;;;;;;;;;;;23.00;99.90;;;23.13;38.08;96108.09;10500680;28;1778;-71
2022/05/21 10:23:22;;;;;;;;;;;23.50;99.90;;;22.93;38.87;96098.09;10513135;28;1821;-72
2022/05/21 10:28:26;;;;;;;;;;;23.60;99.90;;;22.73;41.53;96093.50;10494413;28;1787;-72
2022/05/21 10:33:29;;;;;;;;;;;23.50;99.90;;;22.51;39.90;96092.81;10495578;28;1970;-75
2022/05/21 10:38:33;;;;;;;;;;;23.30;99.90;;;23.60;38.10;96093.78;10503786;28;1792;-72
2022/05/21 10:43:36;;;;;;;;;;;23.80;99.90;;;24.21;34.91;96095.44;10512679;28;1729;-72
2022/05/21 10:48:39;;;;;;;;;;;25.50;99.90;;;24.35;32.98;96073.03;10495570;28;1870;-73
2022/05/21 10:53:42;;;;;;;;;;;26.60;99.90;;;25.46;30.20;96071.66;10510117;28;2015;-72
2022/05/21 10:58:45;;;;;;;;;;;27.50;99.90;;;25.57;31.28;96067.13;10508168;28;1799;-72
2022/05/21 11:03:49;;;;;;;;;;;28.00;98.50;;;25.73;28.94;96061.59;10485432;28;1845;-72
2022/05/21 11:08:52;;;;;;;;;;;28.30;92.00;;;25.47;29.48;96067.72;10518499;28;2137;-72
2022/05/21 11:13:57;;;;;;;;;;;28.20;91.20;;;25.59;29.51;96056.56;10509883;28;1985;-72
2022/05/21 11:19:06;;;;;;;;;;;28.10;91.90;;;24.50;29.61;96058.50;10497640;28;1736;-72
2022/05/21 11:24:12;;;;;;;;;;;27.60;92.10;;;23.72;30.22;96052.56;10507444;28;1826;-72
2022/05/21 11:29:15;;;;;;;;;;;26.70;90.00;;;23.29;30.75;96064.31;10517334;28;1774;-73
2022/05/21 11:39:39;;;;;;;;;;;24.50;92.30;;;22.95;32.38;96053.88;10508127;28;1827;-72
2022/05/21 11:44:58;;;;;;;;;;;23.90;94.60;;;23.39;30.70;96060.25;10507877;28;1909;-73
2022/05/21 11:50:01;;;;;;;;;;;24.10;94.20;;;23.08;31.20;96055.44;10507555;28;2019;-72
2022/05/21 11:55:04;;;;;;;;;;;23.60;92.20;;;22.94;31.71;96061.28;10505189;28;1910;-72
2022/05/21 12:00:07;;;;;;;;;;;23.80;92.10;;;22.83;32.62;96049.19;10505087;28;1776;-72
2022/05/21 12:05:10;;;;;;;;;;;23.70;91.80;;;22.59;31.76;96039.06;10510471;28;1752;-72
2022/05/21 12:10:14;;;;;;;;;;;23.70;90.40;;;22.72;32.68;96053.56;10510103;28;1853;-73
2022/05/21 12:15:18;;;;;;;;;;;23.50;91.40;;;22.79;33.23;96049.09;10491281;28;1922;-73
2022/05/21 12:20:21;;;;;;;;;;;23.60;91.70;;;23.02;32.49;96038.44;10516118;28;1838;-73
2022/05/21 12:25:24;;;;;;;;;;;23.70;91.20;;;22.94;32.15;96039.38;10483974;28;1764;-73
2022/05/21 12:30:29;;;;;;;;;;;23.80;89.90;;;23.11;31.66;96032.81;10485591;28;1860;-73
2022/05/21 12:35:33;;;;;;;;;;;23.90;89.90;;;23.24;30.83;96028.88;10508233;28;1921;-72
2022/05/21 12:40:36;;;;;;;;;;;24.00;88.20;;;23.62;33.82;96014.69;10513217;28;1831;-72
2022/05/21 12:45:42;;;;;;;;;;;24.30;91.50;;;23.67;31.64;96016.38;10484346;28;1794;-73
2022/05/21 12:50:46;;;;;;;;;;;24.40;89.70;;;23.63;30.48;96019.00;10493735;28;2129;-73
2022/05/21 12:55:50;;;;;;;;;;;24.40;88.40;;;23.71;30.88;96006.28;10478813;28;1906;-73
2022/05/21 13:00:53;;;;;;;;;;;24.50;88.40;;;23.92;31.77;95997.78;10514044;28;1813;-73
2022/05/21 13:05:56;;;;;;;;;;;24.60;89.20;;;23.67;31.21;96013.63;10495680;28;1870;-72
2022/05/21 13:11:00;;;;;;;;;;;24.60;87.60;;;24.12;28.42;95998.69;10483696;28;1922;-73
2022/05/21 13:16:03;;;;;;;;;;;24.90;76.70;;;23.41;29.88;96014.06;10507865;28;1989;-74
2022/05/21 13:21:06;;;;;;;;;;;24.70;76.70;;;23.35;30.65;95986.09;10489690;28;1962;-73
2022/05/21 13:26:10;;;;;;;;;;;24.40;78.00;;;24.17;30.47;95982.72;10488654;28;1765;-74
2022/05/21 13:31:13;;;;;;;;;;;24.80;78.40;;;24.24;30.82;95979.38;10485053;28;1828;-72
2022/05/21 13:36:17;;;;;;;;;;;25.00;79.00;;;24.31;28.94;95974.03;10487500;28;1981;-72
2022/05/21 13:41:20;;;;;;;;;;;25.20;76.50;;;24.69;28.93;95972.56;10500188;28;1792;-72
2022/05/21 13:46:23;;;;;;;;;;;25.50;76.90;;;24.70;30.44;95969.44;10503699;28;1768;-72
2022/05/21 13:51:28;;;;;;;;;;;25.70;77.80;;;24.17;30.25;95963.50;10510897;28;1827;-72
2022/05/21 13:56:31;;;;;;;;;;;25.40;76.90;;;23.77;30.32;95954.66;10509959;28;1922;-72
2022/05/21 14:01:36;;;;;;;;;;;25.00;76.60;;;23.48;30.83;95953.91;10506070;28;1864;-73
2022/05/21 14:06:40;;;;;;;;;;;24.70;77.10;;;23.31;32.08;95946.00;10491539;28;1842;-72
2022/05/21 14:11:43;;;;;;;;;;;24.30;78.80;;;23.40;32.59;95946.63;10513676;28;1886;-72
2022/05/21 14:16:47;;;;;;;;;;;24.10;79.70;;;24.07;30.61;95953.06;10496767;28;1969;-73
2022/05/21 14:21:50;;;;;;;;;;;24.70;78.70;;;23.91;30.51;95917.38;10523117;28;1970;-72
2022/05/21 14:26:54;;;;;;;;;;;24.30;77.00;;;23.55;31.54;95947.81;10506627;28;1822;-72
2022/05/21 14:31:57;;;;;;;;;;;24.70;77.70;;;23.83;31.76;95936.78;10487727;28;1927;-72
2022/05/21 14:37:07;;;;;;;;;;;24.70;78.60;;;23.78;30.82;95928.81;10515992;28;1971;-72
2022/05/21 14:42:09;;;;;;;;;;;24.60;77.40;;;23.87;30.36;95927.50;10499802;28;1869;-72
2022/05/21 14:52:53;;;;;;;;;;;24.80;76.80;;;23.30;30.69;95920.53;10484837;28;1849;-73
2022/05/21 14:57:56;;;;;;;;;;;24.40;76.40;;;23.67;31.40;95910.16;10503733;28;1981;-72
2022/05/21 15:02:59;;;;;;;;;;;24.50;78.00;;;23.71;31.55;95899.25;10483566;28;1942;-72
2022/05/21 15:08:02;;;;;;;;;;;24.70;77.80;;;23.78;32.22;95906.84;10503516;28;1835;-72
2022/05/21 15:13:05;;;;;;;;;;;24.70;78.40;;;24.23;31.28;95909.09;10483680;28;1818;-72
2022/05/21 15:18:09;;;;;;;;;;;24.90;78.10;;;23.90;31.58;95893.03;10486177;28;1919;-71
2022/05/21 15:23:14;;;;;;;;;;;25.00;77.20;;;23.63;31.29;95900.22;10499586;28;1798;-72
2022/05/21 15:28:18;;;;;;;;;;;24.70;77.10;;;23.89;31.46;95886.75;10490934;28;1851;-71
2022/05/21 15:33:20;;;;;;;;;;;24.80;77.40;;;23.64;31.88;95877.91;10482488;28;1968;-73
2022/05/21 15:38:23;;;;;;;;;;;24.60;77.60;;;23.84;31.87;95888.97;10476374;28;1909;-73
2022/05/21 15:43:26;;;;;;;;;;;24.50;78.40;;;23.88;32.67;95881.63;10476324;28;1876;-71
2022/05/21 15:48:30;;;;;;;;;;;24.60;78.70;;;23.45;32.83;95875.03;10479768;28;2024;-72
2022/05/21 15:53:33;;;;;;;;;;;24.50;78.40;;;23.23;32.93;95875.66;10495941;28;1902;-73
2022/05/21 15:58:36;;;;;;;;;;;24.30;78.30;;;23.33;34.81;95870.44;10486753;28;1981;-73
2022/05/21 16:03:40;;;;;;;;;;;24.20;81.00;;;23.23;32.41;95870.97;10480443;28;2044;-73
2022/05/21 16:08:43;;;;;;;;;;;24.20;78.40;;;22.98;33.10;95848.38;10505019;28;1829;-74
2022/05/21 16:13:47;;;;;;;;;;;23.90;78.60;;;22.86;33.32;95853.91;10484801;28;1845;-73
2022/05/21 16:18:50;;;;;;;;;;;23.70;78.80;;;22.61;33.87;95851.28;10502357;28;1906;-73
2022/05/21 16:23:53;;;;;;;;;;;23.70;79.20;;;22.76;33.89;95848.91;10503114;28;1858;-74
2022/05/21 16:28:56;;;;;;;;;;;23.70;79.60;;;22.55;34.29;95846.38;10497201;28;1871;-73
2022/05/21 16:34:00;;;;;;;;;;;23.60;79.60;;;22.41;34.40;95838.56;10489975;28;1834;-74
2022/05/21 16:39:03;;;;;;;;;;;23.30;80.10;;;22.50;34.25;95839.22;10510683;28;1894;-74
2022/05/21 16:44:07;;;;;;;;;;;23.30;80.20;;;22.04;34.79;95830.44;10518777;28;1778;-73
2022/05/21 16:49:10;;;;;;;;;;;23.00;80.00;;;21.57;36.09;95827.41;10491789;28;1835;-74
2022/05/21 16:54:13;;;;;;;;;;;22.80;81.00;;;21.74;36.94;95834.56;10492887;28;1902;-73
2022/05/21 16:59:16;;;;;;;;;;;22.60;82.60;;;21.62;37.44;95848.25;10483289;28;1811;-75
2022/05/21 17:04:19;;;;;;;;;;;22.50;83.10;;;21.36;37.33;95834.91;10487248;28;1901;-73
2022/05/21 17:09:22;;;;;;;;;;;22.40;83.00;;;21.33;38.02;95830.94;10498759;28;1812;-73
2022/05/21 17:14:26;;;;;;;;;;;22.20;83.80;;;21.44;38.59;95834.81;10507134;28;1996;-73
2022/05/21 17:19:29;;;;;;;;;;;;;;;21.20;38.22;95827.38;10480428;28;1888;-76
2022/05/21 17:24:32;;;;;;;;;;;22.10;84.40;;;20.94;39.15;95822.22;10499022;28;2013;-74
2022/05/21 17:34:58;;;;;;;;;;;21.80;85.50;;;20.58;39.95;95811.19;10487542;28;2052;-74
2022/05/21 17:40:01;;;;;;;;;;;21.60;85.60;;;20.59;40.32;95805.38;10492717;28;1785;-74
2022/05/21 17:45:06;;;;;;;;;;;;;;;20.52;40.15;95803.19;10489427;28;1890;-75
2022/05/21 17:50:14;;;;;;;;;;;;;;;20.62;39.64;95802.00;10508193;28;2005;-73
2022/05/21 17:55:19;;;;;;;;;;;21.40;86.30;;;20.62;39.90;95791.06;10519870;28;2317;-74
2022/05/21 18:00:22;;;;;;;;;;;21.50;86.30;;;20.61;39.70;95796.84;10520016;28;1887;-75
2022/05/21 18:05:25;;;;;;;;;;;21.50;86.10;;;20.65;40.22;95801.28;10496581;28;1958;-75
2022/05/21 18:10:28;;;;;;;;;;;21.50;86.80;;;20.55;40.58;95801.75;10506756;28;1939;-74
2022/05/21 18:20:52;;;;;;;;;;;21.30;87.60;;;20.07;40.12;95815.94;10493799;28;1912;-74
2022/05/21 18:25:56;;;;;;;;;;;21.10;85.90;;;19.90;40.34;95812.19;10491104;28;1893;-73
2022/05/21 18:30:59;;;;;;;;;;;20.90;86.30;;;19.74;41.19;95804.94;10521254;28;2264;-77
2022/05/21 18:36:02;;;;;;;;;;;20.80;87.00;;;19.61;41.75;95796.69;10508789;28;1914;-74
2022/05/21 18:41:05;;;;;;;;;;;20.70;87.50;;;19.41;42.51;95811.06;10504742;28;2001;-73
2022/05/21 18:46:10;;;;;;;;;;;19.80;87.80;;;19.16;43.73;95801.88;10505998;28;2014;-74
2022/05/21 18:51:13;;;;;;;;;;;20.10;89.40;;;19.01;44.73;95805.91;10504357;28;1960;-74
2022/05/21 18:56:17;;;;;;;;;;;20.00;90.30;;;18.81;44.94;95799.25;10501652;28;1918;-74
2022/05/21 19:01:20;;;;;;;;;;;19.90;90.90;;;18.63;45.75;95795.75;10483975;28;1838;-73
2022/05/21 19:06:24;;;;;;;;;;;19.70;91.60;;;18.46;46.67;95801.25;10504180;28;1866;-74
2022/05/21 19:11:27;;;;;;;;;;;19.60;92.50;;;18.31;46.87;95818.06;10500580;28;1779;-73
2022/05/21 19:16:30;;;;;;;;;;;19.40;92.80;;;18.11;47.82;95816.81;10497128;28;2055;-73
2022/05/21 19:21:33;;;;;;;;;;;19.20;93.60;;;17.96;48.84;95826.25;10512793;28;1781;-73
2022/05/21 19:26:36;;;;;;;;;;;19.00;94.40;;;17.87;48.58;95827.34;10495186;28;1774;-74
2022/05/21 19:31:40;;;;;;;;;;;18.90;94.70;;;17.71;48.86;95835.16;10492088;28;1818;-74
2022/05/21 19:36:43;;;;;;;;;;;18.80;94.90;;;17.63;50.01;95839.44;10504877;28;2420;-74
2022/05/21 19:41:47;;;;;;;;;;;18.70;96.20;;;17.40;50.91;95840.66;10496866;28;1829;-73
2022/05/21 19:46:50;;;;;;;;;;;18.50;96.50;;;17.22;51.51;95837.88;10514921;28;1559;-74
2022/05/21 19:51:54;;;;;;;;;;;18.40;97.30;;;17.12;52.53;95846.31;10497753;28;1784;-74
2022/05/21 19:56:59;;;;;;;;;;;18.20;98.30;;;17.00;53.41;95851.53;10487988;28;1910;-73
2022/05/21 20:02:02;;;;;;;;;;;18.00;99.20;;;16.86;54.18;95851.63;10508229;28;1686;-74
2022/05/21 20:07:05;;;;;;;;;;;17.90;99.90;;;16.70;54.83;95863.97;10492049;28;1818;-74
2022/05/21 20:12:08;;;;;;;;;;;17.70;99.90;;;16.59;55.72;95868.81;10482591;28;1811;-74
2022/05/21 20:17:11;;;;;;;;;;;17.60;99.90;;;16.44;56.65;95861.06;10498186;28;1910;-74
2022/05/21 20:22:15;;;;;;;;;;;17.50;99.90;;;16.37;57.11;95876.97;10488270;28;2473;-74
2022/05/21 20:27:18;;;;;;;;;;;17.40;99.90;;;16.26;57.88;95872.91;10483102;28;1769;-74
2022/05/21 20:32:22;;;;;;;;;;;17.30;99.90;;;16.32;58.11;95869.75;10509232;28;1798;-74
2022/05/21 20:37:25;;;;;;;;;;;17.20;99.90;;;16.24;58.33;95885.97;10507290;28;1902;-73
2022/05/21 20:42:28;;;;;;;;;;;17.30;99.90;;;16.10;59.07;95878.69;10506758;28;1857;-74
2022/05/21 20:52:51;;;;;;;;;;;17.20;99.90;;;16.01;59.44;95887.84;10502643;28;1780;-73
2022/05/21 20:57:55;;;;;;;;;;;17.00;99.90;;;15.89;60.09;95891.88;10500547;28;1969;-73
2022/05/21 21:02:58;;;;;;;;;;;16.90;99.90;;;15.92;59.90;95890.47;10485081;28;1839;-74
2022/05/21 21:08:02;;;;;;;;;;;16.90;99.90;;;15.87;59.41;95890.56;10505147;28;1727;-74
2022/05/21 21:13:05;;;;;;;;;;;16.90;99.90;;;15.72;60.07;95893.63;10495261;28;1841;-74
2022/05/21 21:18:08;;;;;;;;;;;16.70;99.90;;;15.68;60.10;95886.09;10506118;28;1910;-74
2022/05/21 21:23:11;;;;;;;;;;;16.80;99.90;;;15.78;59.37;95887.00;10500806;28;1831;-73
2022/05/21 21:28:15;;;;;;;;;;;16.60;99.90;;;15.63;59.95;95883.47;10486793;28;1752;-73
2022/05/21 21:33:18;;;;;;;;;;;16.60;99.90;;;15.56;60.45;95880.34;10499521;28;1834;-74
2022/05/21 21:38:21;;;;;;;;;;;16.50;99.90;;;15.56;60.38;95876.84;10518720;28;1966;-74
2022/05/21 21:43:25;;;;;;;;;;;16.50;99.90;;;15.59;60.42;95881.66;10481412;28;1876;-74
2022/05/21 21:48:28;;;;;;;;;;;16.50;99.90;;;15.47;60.90;95871.34;10494756;28;1827;-73
2022/05/21 21:53:32;;;;;;;;;;;16.30;99.90;;;15.45;60.66;95873.53;10504387;28;1573;-73
2022/05/21 22:03:56;;;;;;;;;;;16.40;99.90;;;15.27;63.10;95874.41;10492983;28;1910;-73
2022/05/21 22:09:00;;;;;;;;;;;16.20;99.90;;;15.09;62.57;95884.25;10466449;28;1826;-73
2022/05/21 22:14:03;;;;;;;;;;;16.00;99.90;;;15.08;61.65;95896.19;10504115;28;1772;-72
2022/05/21 22:19:05;;;;;;;;;;;15.90;99.90;;;14.93;63.34;95891.84;10487107;28;1987;-73
2022/05/21 22:24:09;;;;;;;;;;;;;;;15.00;63.39;95900.38;10482474;28;2125;-72
2022/05/21 22:29:13;;;;;;;;;;;;;;;15.05;62.09;95889.47;10507991;28;1926;-74
2022/05/21 22:34:16;;;;;;;;;;;;;;;14.95;63.07;95886.13;10491999;28;1835;-72
2022/05/21 22:39:20;;;;;;;;;;;;;;;15.04;62.41;95887.06;10489241;28;1981;-73
2022/05/21 22:44:23;;;;;;;;;;;;;;;15.08;62.12;95882.66;10508286;28;1967;-73
2022/05/21 22:49:27;;;;;;;;;;;;;;;15.03;63.23;95871.94;10498655;28;1828;-75
2022/05/21 22:54:32;;;;;;;;;;;;;;;14.92;63.41;95863.19;10518044;28;1862;-75
2022/05/21 22:59:35;;;;;;;;;;;;;;;14.86;63.45;95869.78;10516704;28;1909;-74
2022/05/21 23:04:39;;;;;;;;;;;;;;;15.01;63.63;95861.38;10497882;28;1997;-74
2022/05/21 23:09:43;;;;;;;;;;;;;;;14.72;65.08;95869.75;10507572;28;1819;-74
2022/05/21 23:20:07;;;;;;;;;;;;;;;14.65;66.70;95858.53;10491502;28;1989;-75
2022/05/21 23:25:11;;;;;;;;;;;;;;;14.80;66.00;95854.75;10502852;28;1823;-74
2022/05/21 23:30:14;;;;;;;;;;;;;;;14.90;64.50;95859.97;10526850;28;1594;-75
2022/05/21 23:35:18;;;;;;;;;;;;;;;15.11;62.89;95855.78;10499819;28;2786;-74
2022/05/21 23:40:21;;;;;;;;;;;;;;;15.33;61.58;95846.97;10495470;28;1981;-74
2022/05/21 23:45:25;;;;;;;;;;;;;;;15.37;61.41;95849.84;10499362;28;1794;-74
2022/05/21 23:50:29;;;;;;;;;;;;;;;15.38;61.68;95832.50;10502066;28;1754;-75
2022/05/21 23:55:33;;;;;;;;;;;;;;;15.56;61.52;95837.00;10514851;28;1809;-75
